createdAt,value
2023-06-04T00:01:19.456Z,1.90
2023-06-04T00:03:47.181Z,2.50
2023-06-04T00:06:14.820Z,2.20
2023-06-04T00:08:42.224Z,2.43
2023-06-04T00:11:09.883Z,2.30
2023-06-04T00:13:37.884Z,2.20
2023-06-04T00:16:05.863Z,1.83
2023-06-04T00:18:33.617Z,2.67
2023-06-04T00:21:01.185Z,1.90
2023-06-04T00:23:28.509Z,1.93
2023-06-04T00:25:55.981Z,2.27
2023-06-04T00:28:23.464Z,2.07
2023-06-04T00:30:51.017Z,2.07
2023-06-04T00:33:18.803Z,2.50
2023-06-04T00:35:46.856Z,2.27
2023-06-04T00:38:14.260Z,2.30
2023-06-04T00:40:41.554Z,1.97
2023-06-04T00:43:10.138Z,2.30
2023-06-04T00:45:37.753Z,2.20
2023-06-04T00:48:05.507Z,2.13
2023-06-04T00:50:34.783Z,2.10
2023-06-04T00:53:02.303Z,2.30
2023-06-04T00:55:29.652Z,2.00
2023-06-04T00:57:57.125Z,2.10
2023-06-04T01:00:24.752Z,2.27
2023-06-04T01:02:52.844Z,2.07
2023-06-04T01:05:31.897Z,2.27
2023-06-04T01:08:00.905Z,1.63
2023-06-04T01:10:28.225Z,1.90
2023-06-04T01:12:55.890Z,1.83
2023-06-04T01:15:23.538Z,2.00
2023-06-04T01:17:53.002Z,2.00
2023-06-04T01:20:34.409Z,2.07
2023-06-04T01:23:19.826Z,1.90
2023-06-04T01:25:51.224Z,1.97
2023-06-04T01:28:19.052Z,2.03
2023-06-04T01:30:47.381Z,2.30
2023-06-04T01:33:16.654Z,1.83
2023-06-04T01:35:44.173Z,2.00
2023-06-04T01:38:11.803Z,2.13
2023-06-04T01:40:39.486Z,2.13
2023-06-04T01:43:07.223Z,2.30
2023-06-04T01:45:34.866Z,2.40
2023-06-04T01:48:06.025Z,2.27
2023-06-04T01:50:33.898Z,2.40
2023-06-04T01:53:01.628Z,2.07
2023-06-04T01:55:31.070Z,2.17
2023-06-04T01:57:58.542Z,2.27
2023-06-04T02:00:26.058Z,2.33
2023-06-04T02:02:54.291Z,2.30
2023-06-04T02:05:21.974Z,2.17
2023-06-04T02:07:49.732Z,2.17
2023-06-04T02:10:18.530Z,2.23
2023-06-04T02:12:59.287Z,2.50
2023-06-04T02:15:27.453Z,2.20
2023-06-04T02:18:14.419Z,1.80
2023-06-04T02:20:42.278Z,2.00
2023-06-04T02:23:09.583Z,2.40
2023-06-04T02:25:36.904Z,2.03
2023-06-04T02:28:04.533Z,2.47
2023-06-04T02:30:32.119Z,2.23
2023-06-04T02:33:02.433Z,2.50
2023-06-04T02:35:30.585Z,2.13
2023-06-04T02:37:59.846Z,2.20
2023-06-04T02:40:27.459Z,2.03
2023-06-04T02:42:55.331Z,2.53
2023-06-04T02:45:23.484Z,2.20
2023-06-04T02:47:51.070Z,2.00
2023-06-04T02:50:18.809Z,2.40
2023-06-04T02:52:46.100Z,2.30
2023-06-04T02:55:14.329Z,2.17
2023-06-04T02:57:45.534Z,2.00
2023-06-04T03:00:16.664Z,1.90
2023-06-04T03:02:45.873Z,2.30
2023-06-04T03:05:14.465Z,2.10
2023-06-04T03:07:44.028Z,2.20
2023-06-04T03:10:12.221Z,2.20
2023-06-04T03:12:39.619Z,2.30
2023-06-04T03:15:07.820Z,2.30
2023-06-04T03:17:35.195Z,2.13
2023-06-04T03:20:02.973Z,2.30
2023-06-04T03:22:30.305Z,2.17
2023-06-04T03:24:57.630Z,2.37
2023-06-04T03:27:24.948Z,2.20
2023-06-04T03:29:52.178Z,2.30
2023-06-04T03:32:19.393Z,2.00
2023-06-04T03:34:47.256Z,2.73
2023-06-04T03:37:14.499Z,2.53
2023-06-04T03:39:41.735Z,2.50
2023-06-04T03:42:09.231Z,2.73
2023-06-04T03:44:36.754Z,2.57
2023-06-04T03:47:04.330Z,2.47
2023-06-04T03:49:32.072Z,2.40
2023-06-04T03:51:59.389Z,2.40
2023-06-04T03:54:26.865Z,2.70
2023-06-04T03:56:54.380Z,2.50
2023-06-04T03:59:22.428Z,3.43
2023-06-04T04:01:50.170Z,3.17
2023-06-04T04:04:17.884Z,2.90
2023-06-04T04:06:45.629Z,2.70
2023-06-04T04:09:14.946Z,2.30
2023-06-04T04:11:42.049Z,2.33
2023-06-04T04:14:09.698Z,2.30
2023-06-04T04:16:37.016Z,2.47
2023-06-04T04:19:04.821Z,2.80
2023-06-04T04:21:32.102Z,2.20
2023-06-04T04:23:59.540Z,2.40
2023-06-04T04:26:29.075Z,2.30
2023-06-04T04:28:59.544Z,2.33
2023-06-04T04:31:28.323Z,2.23
2023-06-04T04:33:57.214Z,2.40
2023-06-04T04:36:25.180Z,2.30
2023-06-04T04:38:56.189Z,2.50
2023-06-04T04:41:27.615Z,2.30
2023-06-04T04:43:55.449Z,2.40
2023-06-04T04:46:23.392Z,2.07
2023-06-04T04:48:51.078Z,2.13
2023-06-04T04:51:18.641Z,2.37
2023-06-04T04:53:46.284Z,1.80
2023-06-04T04:56:13.658Z,2.33
2023-06-04T04:58:40.941Z,2.30
2023-06-04T05:01:08.565Z,2.37
2023-06-04T05:03:36.233Z,2.13
2023-06-04T05:06:03.904Z,2.37
2023-06-04T05:08:31.969Z,2.00
2023-06-04T05:10:59.375Z,2.37
2023-06-04T05:13:27.027Z,2.53
2023-06-04T05:15:54.609Z,1.93
2023-06-04T05:18:22.026Z,2.10
2023-06-04T05:20:49.378Z,2.27
2023-06-04T05:23:16.812Z,2.00
2023-06-04T05:25:44.271Z,2.20
2023-06-04T05:28:11.941Z,2.30
2023-06-04T05:30:42.790Z,2.17
2023-06-04T05:33:19.465Z,2.17
2023-06-04T05:35:50.013Z,2.00
2023-06-04T05:38:19.987Z,2.50
2023-06-04T05:40:47.299Z,2.20
2023-06-04T05:43:15.002Z,2.50
2023-06-04T05:45:42.518Z,2.17
2023-06-04T05:48:10.026Z,2.10
2023-06-04T05:50:37.682Z,2.13
2023-06-04T05:53:05.026Z,2.47
2023-06-04T05:55:32.210Z,2.10
2023-06-04T05:57:59.352Z,2.50
2023-06-04T06:00:26.780Z,2.13
2023-06-04T06:02:54.611Z,2.58
2023-06-04T06:05:22.424Z,2.45
2023-06-04T06:07:50.174Z,2.15
2023-06-04T06:10:17.787Z,2.50
2023-06-04T06:12:45.337Z,2.13
2023-06-04T06:15:13.992Z,2.20
2023-06-04T06:17:41.602Z,2.20
2023-06-04T06:20:09.513Z,2.53
2023-06-04T06:22:37.438Z,2.15
2023-06-04T06:25:07.064Z,2.25
2023-06-04T06:27:35.199Z,2.60
2023-06-04T06:30:02.872Z,2.30
2023-06-04T06:32:30.246Z,2.10
2023-06-04T06:34:57.607Z,2.80
2023-06-04T06:37:25.132Z,2.30
2023-06-04T06:39:52.325Z,2.40
2023-06-04T06:42:20.894Z,2.13
2023-06-04T06:44:48.402Z,2.15
2023-06-04T06:47:15.900Z,2.60
2023-06-04T06:49:43.565Z,2.30
2023-06-04T06:52:11.455Z,2.35
2023-06-04T06:54:39.131Z,2.53
2023-06-04T06:57:10.263Z,2.42
2023-06-04T06:59:37.873Z,2.22
2023-06-04T07:02:06.940Z,2.55
2023-06-04T07:04:34.380Z,2.45
2023-06-04T07:07:01.594Z,2.65
2023-06-04T07:09:29.557Z,2.22
2023-06-04T07:11:56.980Z,2.22
2023-06-04T07:14:24.404Z,2.72
2023-06-04T07:16:52.108Z,2.30
2023-06-04T07:19:19.913Z,2.15
2023-06-04T07:21:47.643Z,2.40
2023-06-04T07:24:15.040Z,2.50
2023-06-04T07:26:42.498Z,2.47
2023-06-04T07:29:09.988Z,2.28
2023-06-04T07:31:37.728Z,2.92
2023-06-04T07:34:05.200Z,2.15
2023-06-04T07:36:34.176Z,2.45
2023-06-04T07:39:01.779Z,3.08
2023-06-04T07:41:29.154Z,3.05
2023-06-04T07:43:58.262Z,2.60
2023-06-04T07:46:26.441Z,2.33
2023-06-04T07:48:54.086Z,2.80
2023-06-04T07:51:21.453Z,3.20
2023-06-04T07:53:49.186Z,2.78
2023-06-04T07:56:16.781Z,3.05
2023-06-04T07:58:46.531Z,3.05
2023-06-04T08:01:14.107Z,3.80
2023-06-04T08:03:43.449Z,3.30
2023-06-04T08:06:12.749Z,3.15
2023-06-04T08:08:40.057Z,3.45
2023-06-04T08:11:07.894Z,3.15
2023-06-04T08:13:35.484Z,3.10
2023-06-04T08:16:03.356Z,3.63
2023-06-04T08:18:30.982Z,3.88
2023-06-04T08:20:58.539Z,3.85
2023-06-04T08:23:25.930Z,3.70
2023-06-04T08:25:53.794Z,3.72
2023-06-04T08:28:21.332Z,3.40
2023-06-04T08:30:48.660Z,3.08
2023-06-04T08:33:16.515Z,3.78
2023-06-04T08:35:44.398Z,3.55
2023-06-04T08:38:11.735Z,3.40
2023-06-04T08:40:39.180Z,3.40
2023-06-04T08:43:06.784Z,3.47
2023-06-04T08:45:35.001Z,4.00
2023-06-04T08:48:02.658Z,3.77
2023-06-04T08:50:30.263Z,3.95
2023-06-04T08:52:57.571Z,3.53
2023-06-04T08:55:25.132Z,3.55
2023-06-04T08:57:53.060Z,3.58
2023-06-04T09:00:21.135Z,3.75
2023-06-04T09:02:49.023Z,3.17
2023-06-04T09:05:25.556Z,3.30
2023-06-04T09:07:56.426Z,3.58
2023-06-04T09:10:26.323Z,3.10
2023-06-04T09:12:54.089Z,3.15
2023-06-04T09:15:21.260Z,4.20
2023-06-04T09:17:48.753Z,3.38
2023-06-04T09:20:22.840Z,3.50
2023-06-04T09:22:50.086Z,3.75
2023-06-04T09:25:28.474Z,3.25
2023-06-04T09:27:59.190Z,3.45
2023-06-04T09:30:27.379Z,3.33
2023-06-04T09:32:55.235Z,2.83
2023-06-04T09:35:22.691Z,3.55
2023-06-04T09:37:54.705Z,3.45
2023-06-04T09:40:22.315Z,3.63
2023-06-04T09:42:55.903Z,3.60
2023-06-04T09:45:30.988Z,3.47
2023-06-04T09:47:58.892Z,3.67
2023-06-04T09:50:32.291Z,3.42
2023-06-04T09:52:59.522Z,2.78
2023-06-04T09:55:27.057Z,3.42
2023-06-04T09:57:54.900Z,3.17
2023-06-04T10:00:24.419Z,3.40
2023-06-04T10:02:57.018Z,3.05
2023-06-04T10:05:24.655Z,3.47
2023-06-04T10:07:53.377Z,3.17
2023-06-04T10:10:27.177Z,2.90
2023-06-04T10:13:01.652Z,3.22
2023-06-04T10:15:29.440Z,3.28
2023-06-04T10:17:56.861Z,5.28
2023-06-04T10:20:24.810Z,3.60
2023-06-04T10:22:52.254Z,3.00
2023-06-04T10:25:19.543Z,3.13
2023-06-04T10:27:48.078Z,3.28
2023-06-04T10:30:15.383Z,3.85
2023-06-04T10:32:42.850Z,3.55
2023-06-04T10:35:10.794Z,3.38
2023-06-04T10:37:38.508Z,3.60
2023-06-04T10:40:07.496Z,3.70
2023-06-04T10:42:45.685Z,3.22
2023-06-04T10:45:13.795Z,3.38
2023-06-04T10:47:42.816Z,2.88
2023-06-04T10:50:14.731Z,3.38
2023-06-04T10:52:55.385Z,3.30
2023-06-04T10:55:23.203Z,3.10
2023-06-04T10:57:57.774Z,3.42
2023-06-04T11:00:36.813Z,3.38
2023-06-04T11:03:04.785Z,3.60
2023-06-04T11:05:44.214Z,2.90
2023-06-04T11:08:12.741Z,3.20
2023-06-04T11:10:42.648Z,3.42
2023-06-04T11:13:13.120Z,3.50
2023-06-04T11:15:47.924Z,3.50
2023-06-04T11:18:19.646Z,3.38
2023-06-04T11:20:51.516Z,3.65
2023-06-04T11:23:19.237Z,3.67
2023-06-04T11:25:47.051Z,3.42
2023-06-04T11:28:20.873Z,3.83
2023-06-04T11:31:04.001Z,3.40
2023-06-04T11:33:31.704Z,3.80
2023-06-04T11:35:59.089Z,4.00
2023-06-04T11:38:26.778Z,3.38
2023-06-04T11:40:58.870Z,3.90
2023-06-04T11:43:26.076Z,3.50
2023-06-04T11:45:53.858Z,3.10
2023-06-04T11:48:21.519Z,3.30
2023-06-04T11:50:49.001Z,3.40
2023-06-04T11:53:16.526Z,3.38
2023-06-04T11:55:43.926Z,3.15
2023-06-04T11:58:11.423Z,3.10
2023-06-04T12:00:38.694Z,3.50
2023-06-04T12:03:06.758Z,3.78
2023-06-04T12:05:34.139Z,3.75
2023-06-04T12:08:11.373Z,4.05
2023-06-04T12:10:40.387Z,3.70
2023-06-04T12:13:08.338Z,3.58
2023-06-04T12:15:36.037Z,3.88
2023-06-04T12:18:05.608Z,3.78
2023-06-04T12:20:43.826Z,4.00
2023-06-04T12:23:21.470Z,4.20
2023-06-04T12:25:52.426Z,3.60
2023-06-04T12:28:20.242Z,3.53
2023-06-04T12:30:48.007Z,3.25
2023-06-04T12:33:15.683Z,3.15
2023-06-04T12:35:43.427Z,4.18
2023-06-04T12:38:11.074Z,3.80
2023-06-04T12:40:38.817Z,4.00
2023-06-04T12:43:07.669Z,3.22
2023-06-04T12:45:35.532Z,3.70
2023-06-04T12:48:03.021Z,3.72
2023-06-04T12:50:30.508Z,3.83
2023-06-04T12:52:57.771Z,3.65
2023-06-04T12:55:27.965Z,3.70
2023-06-04T12:57:55.936Z,3.40
2023-06-04T13:00:23.761Z,3.50
2023-06-04T13:02:51.012Z,4.18
2023-06-04T13:05:18.184Z,3.55
2023-06-04T13:07:45.921Z,3.45
2023-06-04T13:10:13.340Z,3.38
2023-06-04T13:12:40.743Z,3.58
2023-06-04T13:15:08.617Z,3.45
2023-06-04T13:17:36.440Z,3.55
2023-06-04T13:20:05.427Z,4.10
2023-06-04T13:22:32.665Z,3.33
2023-06-04T13:25:00.098Z,3.88
2023-06-04T13:27:27.729Z,3.70
2023-06-04T13:29:55.299Z,3.35
2023-06-04T13:32:22.831Z,3.67
2023-06-04T13:34:50.537Z,3.50
2023-06-04T13:37:17.745Z,3.53
2023-06-04T13:39:45.144Z,3.30
2023-06-04T13:42:12.842Z,3.50
2023-06-04T13:44:40.256Z,3.53
2023-06-04T13:47:07.765Z,3.80
2023-06-04T13:49:35.447Z,3.70
2023-06-04T13:52:03.000Z,3.67
2023-06-04T13:54:30.637Z,3.83
2023-06-04T13:56:58.336Z,3.88
2023-06-04T13:59:25.962Z,3.80
2023-06-04T14:01:53.875Z,3.75
2023-06-04T14:04:21.459Z,3.38
2023-06-04T14:06:49.587Z,4.55
2023-06-04T14:09:17.576Z,3.30
2023-06-04T14:11:46.577Z,4.13
2023-06-04T14:14:15.842Z,3.40
2023-06-04T14:16:43.583Z,3.30
2023-06-04T14:19:11.087Z,3.75
2023-06-04T14:21:38.833Z,3.83
2023-06-04T14:24:07.010Z,3.78
2023-06-04T14:26:35.125Z,3.75
2023-06-04T14:29:02.804Z,4.20
2023-06-04T14:31:30.100Z,3.50
2023-06-04T14:33:57.632Z,3.95
2023-06-04T14:36:25.443Z,3.63
2023-06-04T14:38:52.769Z,3.85
2023-06-04T14:41:20.017Z,3.97
2023-06-04T14:43:47.369Z,3.65
2023-06-04T14:46:15.054Z,3.70
2023-06-04T14:48:42.774Z,4.50
2023-06-04T14:51:10.800Z,4.13
2023-06-04T14:53:41.267Z,4.05
2023-06-04T14:56:08.959Z,4.07
2023-06-04T14:58:36.549Z,4.20
2023-06-04T15:01:05.328Z,3.90
2023-06-04T15:03:33.742Z,3.88
2023-06-04T15:06:18.050Z,4.00
2023-06-04T15:08:46.398Z,3.78
2023-06-04T15:11:15.135Z,4.07
2023-06-04T15:13:42.973Z,4.13
2023-06-04T15:16:10.578Z,4.13
2023-06-04T15:18:38.310Z,3.47
2023-06-04T15:21:06.070Z,3.95
2023-06-04T15:23:33.458Z,3.75
2023-06-04T15:26:01.014Z,3.90
2023-06-04T15:28:28.158Z,3.75
2023-06-04T15:30:55.855Z,4.20
2023-06-04T15:33:23.370Z,4.45
2023-06-04T15:35:50.988Z,4.03
2023-06-04T15:38:18.562Z,4.55
2023-06-04T15:40:45.851Z,4.13
2023-06-04T15:43:13.048Z,4.18
2023-06-04T15:45:40.680Z,4.32
2023-06-04T15:48:08.000Z,3.83
2023-06-04T15:50:35.444Z,4.07
2023-06-04T15:53:03.124Z,4.40
2023-06-04T15:55:30.713Z,3.97
2023-06-04T15:57:57.927Z,4.00
2023-06-04T16:00:25.669Z,4.25
2023-06-04T16:02:52.881Z,4.30
2023-06-04T16:05:20.500Z,4.38
2023-06-04T16:07:48.070Z,4.25
2023-06-04T16:10:15.624Z,3.97
2023-06-04T16:12:43.185Z,3.88
2023-06-04T16:15:11.647Z,4.45
2023-06-04T16:17:39.605Z,3.92
2023-06-04T16:20:07.534Z,3.95
2023-06-04T16:22:35.142Z,3.50
2023-06-04T16:25:02.764Z,3.85
2023-06-04T16:27:30.227Z,4.30
2023-06-04T16:29:57.934Z,4.68
2023-06-04T16:32:25.270Z,4.20
2023-06-04T16:34:52.550Z,4.00
2023-06-04T16:37:20.037Z,4.57
2023-06-04T16:39:47.172Z,4.40
2023-06-04T16:42:15.209Z,3.92
2023-06-04T16:44:42.656Z,4.60
2023-06-04T16:47:10.140Z,4.40
2023-06-04T16:49:37.636Z,4.35
2023-06-04T16:52:08.690Z,4.05
2023-06-04T16:54:36.829Z,4.25
2023-06-04T16:57:04.491Z,4.33
2023-06-04T16:59:33.690Z,3.87
2023-06-04T17:02:01.448Z,4.38
2023-06-04T17:04:28.979Z,4.90
2023-06-04T17:06:58.091Z,4.73
2023-06-04T17:09:25.516Z,4.87
2023-06-04T17:11:53.274Z,5.03
2023-06-04T17:14:20.992Z,4.60
2023-06-04T17:16:48.486Z,4.30
2023-06-04T17:19:16.707Z,4.57
2023-06-04T17:21:44.399Z,4.37
2023-06-04T17:24:12.349Z,4.77
2023-06-04T17:26:40.066Z,4.17
2023-06-04T17:29:07.503Z,4.40
2023-06-04T17:31:34.809Z,4.43
2023-06-04T17:34:02.550Z,4.90
2023-06-04T17:36:29.757Z,4.70
2023-06-04T17:38:57.426Z,4.40
2023-06-04T17:41:25.004Z,4.60
2023-06-04T17:43:52.619Z,4.37
2023-06-04T17:46:20.668Z,4.63
2023-06-04T17:48:48.343Z,3.90
2023-06-04T17:51:16.162Z,5.50
2023-06-04T17:53:43.648Z,4.73
2023-06-04T17:56:11.483Z,4.20
2023-06-04T17:58:38.961Z,4.83
2023-06-04T18:01:06.345Z,5.30
2023-06-04T18:03:34.305Z,4.87
2023-06-04T18:06:02.173Z,4.80
2023-06-04T18:08:29.632Z,4.67
2023-06-04T18:10:57.858Z,5.00
2023-06-04T18:13:25.259Z,4.70
2023-06-04T18:15:52.752Z,4.67
2023-06-04T18:18:20.424Z,4.33
2023-06-04T18:20:47.671Z,4.60
2023-06-04T18:23:15.848Z,4.43
2023-06-04T18:25:43.258Z,4.50
2023-06-04T18:28:11.112Z,5.77
2023-06-04T18:30:38.709Z,5.00
2023-06-04T18:33:06.361Z,4.33
2023-06-04T18:35:34.267Z,4.40
2023-06-04T18:38:01.594Z,5.47
2023-06-04T18:40:29.204Z,4.60
2023-06-04T18:42:56.546Z,4.83
2023-06-04T18:45:24.860Z,5.00
2023-06-04T18:47:52.702Z,4.37
2023-06-04T18:50:20.002Z,4.80
2023-06-04T18:52:47.499Z,4.63
2023-06-04T18:55:15.115Z,4.60
2023-06-04T18:57:42.609Z,4.50
2023-06-04T19:00:11.182Z,4.60
2023-06-04T19:02:38.728Z,4.67
2023-06-04T19:05:08.881Z,4.00
2023-06-04T19:07:38.142Z,4.43
2023-06-04T19:10:06.157Z,3.93
2023-06-04T19:12:33.836Z,4.93
2023-06-04T19:15:01.673Z,4.10
2023-06-04T19:17:32.053Z,4.97
2023-06-04T19:19:59.927Z,4.27
2023-06-04T19:22:27.344Z,4.20
2023-06-04T19:24:54.896Z,4.60
2023-06-04T19:27:22.257Z,4.60
2023-06-04T19:29:49.675Z,4.57
2023-06-04T19:32:17.542Z,4.00
2023-06-04T19:34:45.156Z,4.47
2023-06-04T19:37:12.640Z,4.63
2023-06-04T19:39:40.602Z,4.27
2023-06-04T19:42:08.905Z,4.53
2023-06-04T19:44:36.296Z,5.23
2023-06-04T19:47:04.413Z,5.03
2023-06-04T19:49:32.019Z,5.20
2023-06-04T19:51:59.776Z,4.50
2023-06-04T19:54:27.296Z,5.30
2023-06-04T19:56:54.867Z,4.77
2023-06-04T19:59:22.003Z,5.17
2023-06-04T20:01:49.428Z,5.77
2023-06-04T20:04:16.664Z,6.93
2023-06-04T20:06:44.969Z,5.93
2023-06-04T20:09:15.091Z,6.30
2023-06-04T20:11:42.848Z,5.90
2023-06-04T20:14:11.427Z,7.30
2023-06-04T20:16:39.078Z,6.30
2023-06-04T20:19:06.628Z,5.90
2023-06-04T20:21:36.008Z,7.03
2023-06-04T20:24:04.283Z,6.03
2023-06-04T20:26:34.318Z,5.70
2023-06-04T20:29:01.975Z,5.17
2023-06-04T20:31:29.662Z,5.33
2023-06-04T20:33:56.985Z,5.40
2023-06-04T20:36:25.068Z,5.57
2023-06-04T20:38:52.764Z,6.43
2023-06-04T20:41:21.504Z,5.73
2023-06-04T20:43:51.664Z,5.77
2023-06-04T20:46:19.107Z,5.63
2023-06-04T20:48:46.842Z,6.07
2023-06-04T20:51:15.113Z,6.60
2023-06-04T20:53:49.111Z,6.20
2023-06-04T20:56:17.097Z,6.37
2023-06-04T20:58:44.471Z,6.07
2023-06-04T21:01:13.687Z,5.73
2023-06-04T21:03:41.583Z,5.67
2023-06-04T21:06:09.187Z,5.27
2023-06-04T21:08:37.070Z,6.20
2023-06-04T21:11:04.631Z,5.60
2023-06-04T21:13:32.029Z,5.90
2023-06-04T21:15:59.588Z,5.80
2023-06-04T21:18:27.289Z,5.30
2023-06-04T21:20:55.015Z,6.33
2023-06-04T21:23:23.044Z,5.87
2023-06-04T21:25:51.028Z,5.63
2023-06-04T21:28:18.480Z,5.93
2023-06-04T21:30:46.421Z,5.00
2023-06-04T21:33:13.769Z,5.53
2023-06-04T21:35:41.076Z,6.10
2023-06-04T21:38:08.494Z,6.00
2023-06-04T21:40:36.052Z,5.70
2023-06-04T21:43:03.992Z,5.47
2023-06-04T21:45:31.634Z,6.00
2023-06-04T21:48:00.560Z,5.43
2023-06-04T21:50:27.956Z,5.37
2023-06-04T21:52:55.361Z,5.80
2023-06-04T21:55:22.955Z,5.57
2023-06-04T21:57:50.320Z,6.10
2023-06-04T22:00:18.138Z,5.77
2023-06-04T22:02:45.671Z,5.17
2023-06-04T22:05:13.349Z,5.07
2023-06-04T22:07:40.882Z,5.83
2023-06-04T22:10:09.092Z,5.67
2023-06-04T22:12:36.792Z,5.33
2023-06-04T22:15:04.490Z,6.03
2023-06-04T22:17:32.278Z,5.40
2023-06-04T22:19:59.836Z,5.23
2023-06-04T22:22:27.444Z,5.33
2023-06-04T22:24:55.145Z,5.67
2023-06-04T22:27:22.664Z,5.70
2023-06-04T22:29:49.926Z,4.97
2023-06-04T22:32:17.127Z,5.40
2023-06-04T22:34:44.897Z,5.47
2023-06-04T22:37:12.570Z,5.03
2023-06-04T22:39:40.252Z,5.17
2023-06-04T22:42:08.036Z,4.77
2023-06-04T22:44:35.379Z,5.13
2023-06-04T22:47:03.354Z,4.80
2023-06-04T22:49:30.775Z,5.43
2023-06-04T22:51:57.985Z,5.03
2023-06-04T22:54:25.759Z,5.20
2023-06-04T22:56:53.294Z,4.73
2023-06-04T22:59:20.704Z,4.87
2023-06-04T23:01:48.601Z,5.00
2023-06-04T23:04:16.322Z,4.87
2023-06-04T23:06:43.727Z,5.37
2023-06-04T23:09:13.786Z,4.97
2023-06-04T23:11:41.903Z,5.80
2023-06-04T23:14:09.598Z,5.13
2023-06-04T23:16:37.106Z,5.13
2023-06-04T23:19:05.277Z,5.47
2023-06-04T23:21:32.878Z,5.50
2023-06-04T23:24:00.692Z,5.10
2023-06-04T23:26:28.397Z,5.10
2023-06-04T23:28:56.271Z,5.23
2023-06-04T23:31:23.618Z,5.17
2023-06-04T23:33:51.032Z,5.40
2023-06-04T23:36:19.068Z,5.20
2023-06-04T23:38:48.163Z,5.50
2023-06-04T23:41:16.270Z,5.27
2023-06-04T23:43:43.807Z,5.90
2023-06-04T23:46:11.771Z,4.87
2023-06-04T23:48:39.206Z,5.87
2023-06-04T23:51:06.782Z,5.70
2023-06-04T23:53:34.415Z,5.23
2023-06-04T23:56:02.556Z,4.87
2023-06-04T23:58:30.178Z,5.23
